sensor_id;sensor_type;location;lat;lon;timestamp;pressure;altitude;pressure_sealevel;temperature;humidity
71964;BME280;59834;52.124;5.422;2022-08-24T00:02:03;101789.94;;;19.77;81.63
71964;BME280;59834;52.124;5.422;2022-08-24T00:04:30;101793.03;;;19.83;81.63
71964;BME280;59834;52.124;5.422;2022-08-24T00:06:58;101803.53;;;19.84;81.37
71964;BME280;59834;52.124;5.422;2022-08-24T00:09:24;101798.34;;;19.83;81.34
71964;BME280;59834;52.124;5.422;2022-08-24T00:11:51;101801.00;;;19.83;81.89
71964;BME280;59834;52.124;5.422;2022-08-24T00:14:18;101802.94;;;19.81;81.46
71964;BME280;59834;52.124;5.422;2022-08-24T00:16:45;101792.75;;;19.76;81.77
71964;BME280;59834;52.124;5.422;2022-08-24T00:19:12;101808.09;;;19.72;81.76
71964;BME280;59834;52.124;5.422;2022-08-24T00:21:38;101799.56;;;19.69;81.85
71964;BME280;59834;52.124;5.422;2022-08-24T00:24:05;101802.34;;;19.67;81.97
71964;BME280;59834;52.124;5.422;2022-08-24T00:26:32;101805.00;;;19.67;81.93
71964;BME280;59834;52.124;5.422;2022-08-24T00:29:02;101796.34;;;19.65;81.13
71964;BME280;59834;52.124;5.422;2022-08-24T00:31:33;101811.06;;;19.58;81.47
71964;BME280;59834;52.124;5.422;2022-08-24T00:33:59;101802.16;;;19.59;81.14
71964;BME280;59834;52.124;5.422;2022-08-24T00:36:26;101797.78;;;19.58;81.45
71964;BME280;59834;52.124;5.422;2022-08-24T00:38:53;101803.50;;;19.53;81.60
71964;BME280;59834;52.124;5.422;2022-08-24T00:41:19;101804.59;;;19.51;81.78
71964;BME280;59834;52.124;5.422;2022-08-24T00:43:54;101801.94;;;19.51;82.09
71964;BME280;59834;52.124;5.422;2022-08-24T00:46:25;101803.75;;;19.50;82.29
71964;BME280;59834;52.124;5.422;2022-08-24T00:49:00;101811.72;;;19.50;81.94
71964;BME280;59834;52.124;5.422;2022-08-24T00:51:32;101811.63;;;19.52;82.02
71964;BME280;59834;52.124;5.422;2022-08-24T00:54:12;101808.50;;;19.47;80.97
71964;BME280;59834;52.124;5.422;2022-08-24T00:56:44;101809.16;;;19.39;81.28
71964;BME280;59834;52.124;5.422;2022-08-24T00:59:17;101801.41;;;19.26;81.72
71964;BME280;59834;52.124;5.422;2022-08-24T01:01:49;101807.75;;;19.14;82.11
71964;BME280;59834;52.124;5.422;2022-08-24T01:04:30;101801.53;;;19.04;81.69
71964;BME280;59834;52.124;5.422;2022-08-24T01:07:00;101802.44;;;18.93;82.34
71964;BME280;59834;52.124;5.422;2022-08-24T01:09:27;101802.81;;;18.89;82.42
71964;BME280;59834;52.124;5.422;2022-08-24T01:11:54;101803.06;;;18.86;82.77
71964;BME280;59834;52.124;5.422;2022-08-24T01:14:22;101799.25;;;18.78;82.73
71964;BME280;59834;52.124;5.422;2022-08-24T01:16:49;101801.91;;;18.78;83.15
71964;BME280;59834;52.124;5.422;2022-08-24T01:19:40;101798.66;;;18.75;82.39
71964;BME280;59834;52.124;5.422;2022-08-24T01:24:49;101795.41;;;18.71;83.13
71964;BME280;59834;52.124;5.422;2022-08-24T01:27:16;101791.44;;;18.66;83.48
71964;BME280;59834;52.124;5.422;2022-08-24T01:29:49;101790.59;;;18.65;82.90
71964;BME280;59834;52.124;5.422;2022-08-24T01:32:18;101784.72;;;18.61;82.95
71964;BME280;59834;52.124;5.422;2022-08-24T01:34:45;101794.19;;;18.64;83.32
71964;BME280;59834;52.124;5.422;2022-08-24T01:37:11;101787.81;;;18.67;83.01
71964;BME280;59834;52.124;5.422;2022-08-24T01:39:41;101787.44;;;18.71;83.22
71964;BME280;59834;52.124;5.422;2022-08-24T01:42:09;101790.81;;;18.73;82.97
71964;BME280;59834;52.124;5.422;2022-08-24T01:44:38;101795.50;;;18.70;83.52
71964;BME280;59834;52.124;5.422;2022-08-24T01:47:06;101798.56;;;18.65;83.97
71964;BME280;59834;52.124;5.422;2022-08-24T01:49:36;101804.94;;;18.63;84.45
71964;BME280;59834;52.124;5.422;2022-08-24T01:52:05;101802.28;;;18.63;84.59
71964;BME280;59834;52.124;5.422;2022-08-24T01:54:32;101804.56;;;18.67;84.47
71964;BME280;59834;52.124;5.422;2022-08-24T01:56:59;101797.56;;;18.66;84.28
71964;BME280;59834;52.124;5.422;2022-08-24T01:59:27;101805.06;;;18.61;84.03
71964;BME280;59834;52.124;5.422;2022-08-24T02:01:56;101810.63;;;18.58;83.56
71964;BME280;59834;52.124;5.422;2022-08-24T02:04:23;101811.72;;;18.55;84.19
71964;BME280;59834;52.124;5.422;2022-08-24T02:06:50;101817.72;;;18.57;84.17
71964;BME280;59834;52.124;5.422;2022-08-24T02:09:16;101813.53;;;18.55;83.88
71964;BME280;59834;52.124;5.422;2022-08-24T02:11:43;101811.13;;;18.52;84.31
71964;BME280;59834;52.124;5.422;2022-08-24T02:14:09;101811.97;;;18.52;84.43
71964;BME280;59834;52.124;5.422;2022-08-24T02:16:39;101812.81;;;18.53;83.81
71964;BME280;59834;52.124;5.422;2022-08-24T02:19:06;101816.19;;;18.55;83.99
71964;BME280;59834;52.124;5.422;2022-08-24T02:21:33;101816.19;;;18.55;83.78
71964;BME280;59834;52.124;5.422;2022-08-24T02:24:01;101820.50;;;18.56;83.92
71964;BME280;59834;52.124;5.422;2022-08-24T02:26:27;101820.75;;;18.53;84.37
71964;BME280;59834;52.124;5.422;2022-08-24T02:28:57;101811.97;;;18.52;84.70
71964;BME280;59834;52.124;5.422;2022-08-24T02:31:29;101817.53;;;18.49;83.95
71964;BME280;59834;52.124;5.422;2022-08-24T02:33:55;101815.00;;;18.48;83.93
71964;BME280;59834;52.124;5.422;2022-08-24T02:36:22;101812.47;;;18.46;83.22
71964;BME280;59834;52.124;5.422;2022-08-24T02:38:52;101811.16;;;18.41;83.41
71964;BME280;59834;52.124;5.422;2022-08-24T02:41:20;101814.31;;;18.34;83.25
71964;BME280;59834;52.124;5.422;2022-08-24T02:43:47;101802.41;;;18.29;83.36
71964;BME280;59834;52.124;5.422;2022-08-24T02:46:18;101810.00;;;18.22;83.84
71964;BME280;59834;52.124;5.422;2022-08-24T02:48:45;101814.56;;;18.20;83.40
71964;BME280;59834;52.124;5.422;2022-08-24T02:51:25;101811.31;;;18.17;83.81
71964;BME280;59834;52.124;5.422;2022-08-24T02:53:56;101807.97;;;18.14;84.26
71964;BME280;59834;52.124;5.422;2022-08-24T02:56:23;101807.38;;;18.11;84.30
71964;BME280;59834;52.124;5.422;2022-08-24T02:58:50;101814.47;;;18.10;84.34
71964;BME280;59834;52.124;5.422;2022-08-24T03:01:19;101814.69;;;18.07;83.83
71964;BME280;59834;52.124;5.422;2022-08-24T03:03:55;101816.75;;;18.04;84.73
71964;BME280;59834;52.124;5.422;2022-08-24T03:06:23;101818.81;;;18.00;84.43
71964;BME280;59834;52.124;5.422;2022-08-24T03:08:49;101817.28;;;17.98;84.31
71964;BME280;59834;52.124;5.422;2022-08-24T03:11:23;101817.88;;;18.01;84.32
71964;BME280;59834;52.124;5.422;2022-08-24T03:13:55;101822.06;;;18.04;84.23
71964;BME280;59834;52.124;5.422;2022-08-24T03:16:22;101823.03;;;18.03;84.82
71964;BME280;59834;52.124;5.422;2022-08-24T03:18:48;101830.13;;;18.02;83.69
71964;BME280;59834;52.124;5.422;2022-08-24T03:21:16;101831.34;;;17.98;84.17
71964;BME280;59834;52.124;5.422;2022-08-24T03:23:42;101832.91;;;18.01;84.46
71964;BME280;59834;52.124;5.422;2022-08-24T03:26:10;101824.84;;;18.02;84.39
71964;BME280;59834;52.124;5.422;2022-08-24T03:28:36;101828.47;;;18.01;85.34
71964;BME280;59834;52.124;5.422;2022-08-24T03:31:05;101834.59;;;18.02;84.93
71964;BME280;59834;52.124;5.422;2022-08-24T03:33:33;101826.88;;;17.99;85.38
71964;BME280;59834;52.124;5.422;2022-08-24T03:35:59;101827.88;;;17.98;85.40
71964;BME280;59834;52.124;5.422;2022-08-24T03:38:27;101827.00;;;17.97;84.87
71964;BME280;59834;52.124;5.422;2022-08-24T03:40:58;101819.03;;;17.97;85.51
71964;BME280;59834;52.124;5.422;2022-08-24T03:43:27;101820.25;;;17.93;85.33
71964;BME280;59834;52.124;5.422;2022-08-24T03:46:18;101824.97;;;17.89;85.57
71964;BME280;59834;52.124;5.422;2022-08-24T03:48:46;101821.59;;;17.87;85.68
71964;BME280;59834;52.124;5.422;2022-08-24T03:51:15;101818.00;;;17.88;84.88
71964;BME280;59834;52.124;5.422;2022-08-24T03:53:43;101823.97;;;17.90;85.24
71964;BME280;59834;52.124;5.422;2022-08-24T03:56:10;101824.84;;;17.91;85.83
71964;BME280;59834;52.124;5.422;2022-08-24T03:58:38;101829.56;;;17.87;84.85
71964;BME280;59834;52.124;5.422;2022-08-24T04:01:07;101824.72;;;17.81;85.30
71964;BME280;59834;52.124;5.422;2022-08-24T04:03:39;101825.94;;;17.77;84.37
71964;BME280;59834;52.124;5.422;2022-08-24T04:06:07;101828.91;;;17.73;84.35
71964;BME280;59834;52.124;5.422;2022-08-24T04:08:38;101823.00;;;17.69;84.72
71964;BME280;59834;52.124;5.422;2022-08-24T04:11:17;101827.47;;;17.68;84.72
71964;BME280;59834;52.124;5.422;2022-08-24T04:13:45;101827.81;;;17.64;84.84
71964;BME280;59834;52.124;5.422;2022-08-24T04:16:14;101829.59;;;17.63;84.88
71964;BME280;59834;52.124;5.422;2022-08-24T04:18:41;101824.31;;;17.63;84.88
71964;BME280;59834;52.124;5.422;2022-08-24T04:21:20;101830.47;;;17.64;84.81
71964;BME280;59834;52.124;5.422;2022-08-24T04:23:47;101827.09;;;17.62;84.80
71964;BME280;59834;52.124;5.422;2022-08-24T04:26:15;101839.50;;;17.61;84.79
71964;BME280;59834;52.124;5.422;2022-08-24T04:29:04;101834.28;;;17.60;83.89
71964;BME280;59834;52.124;5.422;2022-08-24T04:31:35;101843.22;;;17.59;84.97
71964;BME280;59834;52.124;5.422;2022-08-24T04:34:02;101833.09;;;17.53;83.82
71964;BME280;59834;52.124;5.422;2022-08-24T04:36:28;101831.88;;;17.46;84.11
71964;BME280;59834;52.124;5.422;2022-08-24T04:38:55;101838.38;;;17.41;84.62
71964;BME280;59834;52.124;5.422;2022-08-24T04:41:21;101837.78;;;17.38;84.69
71964;BME280;59834;52.124;5.422;2022-08-24T04:43:57;101838.72;;;17.37;85.07
71964;BME280;59834;52.124;5.422;2022-08-24T04:46:25;101844.97;;;17.36;84.67
71964;BME280;59834;52.124;5.422;2022-08-24T04:48:52;101844.13;;;17.35;84.71
71964;BME280;59834;52.124;5.422;2022-08-24T04:51:20;101843.16;;;17.36;85.01
71964;BME280;59834;52.124;5.422;2022-08-24T04:53:47;101849.28;;;17.37;85.07
71964;BME280;59834;52.124;5.422;2022-08-24T04:56:24;101851.84;;;17.38;84.90
71964;BME280;59834;52.124;5.422;2022-08-24T04:58:52;101849.94;;;17.40;84.66
71964;BME280;59834;52.124;5.422;2022-08-24T05:01:23;101848.84;;;17.43;85.21
71964;BME280;59834;52.124;5.422;2022-08-24T05:03:51;101854.97;;;17.43;84.65
71964;BME280;59834;52.124;5.422;2022-08-24T05:06:22;101854.13;;;17.43;84.11
71964;BME280;59834;52.124;5.422;2022-08-24T05:08:49;101849.56;;;17.45;84.73
71964;BME280;59834;52.124;5.422;2022-08-24T05:11:17;101846.78;;;17.47;84.66
71964;BME280;59834;52.124;5.422;2022-08-24T05:13:45;101843.19;;;17.48;84.00
71964;BME280;59834;52.124;5.422;2022-08-24T05:16:15;101847.28;;;17.52;83.69
71964;BME280;59834;52.124;5.422;2022-08-24T05:18:43;101855.47;;;17.49;84.16
71964;BME280;59834;52.124;5.422;2022-08-24T05:21:12;101856.22;;;17.51;84.57
71964;BME280;59834;52.124;5.422;2022-08-24T05:23:39;101856.31;;;17.60;84.07
71964;BME280;59834;52.124;5.422;2022-08-24T05:26:17;101863.44;;;17.71;84.52
71964;BME280;59834;52.124;5.422;2022-08-24T05:28:44;101863.47;;;17.82;84.99
71964;BME280;59834;52.124;5.422;2022-08-24T05:31:17;101857.97;;;18.74;82.54
71964;BME280;59834;52.124;5.422;2022-08-24T05:33:44;101868.66;;;20.09;77.38
71964;BME280;59834;52.124;5.422;2022-08-24T05:36:32;101863.47;;;21.26;74.23
71964;BME280;59834;52.124;5.422;2022-08-24T05:39:01;101865.41;;;22.00;69.72
71964;BME280;59834;52.124;5.422;2022-08-24T05:41:28;101855.41;;;22.39;68.03
71964;BME280;59834;52.124;5.422;2022-08-24T05:43:55;101863.47;;;22.75;66.15
71964;BME280;59834;52.124;5.422;2022-08-24T05:46:21;101865.28;;;22.92;65.56
71964;BME280;59834;52.124;5.422;2022-08-24T05:48:48;101869.88;;;23.18;64.49
71964;BME280;59834;52.124;5.422;2022-08-24T05:51:19;101862.44;;;23.56;63.16
71964;BME280;59834;52.124;5.422;2022-08-24T05:53:46;101859.00;;;23.89;62.50
71964;BME280;59834;52.124;5.422;2022-08-24T05:56:14;101854.81;;;24.29;61.22
71964;BME280;59834;52.124;5.422;2022-08-24T05:58:41;101859.59;;;24.60;60.55
71964;BME280;59834;52.124;5.422;2022-08-24T06:01:11;101856.59;;;24.79;60.50
71964;BME280;59834;52.124;5.422;2022-08-24T06:03:38;101854.78;;;24.96;60.38
71964;BME280;59834;52.124;5.422;2022-08-24T06:06:06;101852.25;;;25.27;59.62
71964;BME280;59834;52.124;5.422;2022-08-24T06:08:35;101860.25;;;25.52;59.10
71964;BME280;59834;52.124;5.422;2022-08-24T06:11:07;101860.94;;;25.62;58.68
71964;BME280;59834;52.124;5.422;2022-08-24T06:13:35;101851.50;;;25.82;58.71
71964;BME280;59834;52.124;5.422;2022-08-24T06:16:10;101862.69;;;25.94;58.78
71964;BME280;59834;52.124;5.422;2022-08-24T06:18:48;101862.38;;;25.89;58.60
71964;BME280;59834;52.124;5.422;2022-08-24T06:21:21;101860.19;;;25.93;59.34
71964;BME280;59834;52.124;5.422;2022-08-24T06:23:48;101866.25;;;25.86;59.44
71964;BME280;59834;52.124;5.422;2022-08-24T06:26:18;101874.25;;;25.78;59.57
71964;BME280;59834;52.124;5.422;2022-08-24T06:29:05;101875.00;;;25.56;60.30
71964;BME280;59834;52.124;5.422;2022-08-24T06:31:40;101874.31;;;25.70;60.51
71964;BME280;59834;52.124;5.422;2022-08-24T06:34:09;101869.34;;;26.06;59.06
71964;BME280;59834;52.124;5.422;2022-08-24T06:36:36;101871.50;;;26.11;58.55
71964;BME280;59834;52.124;5.422;2022-08-24T06:39:05;101874.88;;;26.05;58.19
71964;BME280;59834;52.124;5.422;2022-08-24T06:41:36;101883.00;;;25.80;59.55
71964;BME280;59834;52.124;5.422;2022-08-24T06:44:03;101882.31;;;25.86;59.86
71964;BME280;59834;52.124;5.422;2022-08-24T06:46:30;101884.16;;;25.78;59.87
71964;BME280;59834;52.124;5.422;2022-08-24T06:49:01;101879.81;;;25.85;60.04
71964;BME280;59834;52.124;5.422;2022-08-24T06:51:50;101881.91;;;25.26;61.10
71964;BME280;59834;52.124;5.422;2022-08-24T06:54:22;101884.84;;;24.15;64.69
71964;BME280;59834;52.124;5.422;2022-08-24T06:56:51;101885.81;;;23.53;68.00
71964;BME280;59834;52.124;5.422;2022-08-24T06:59:30;101885.66;;;23.29;68.42
71964;BME280;59834;52.124;5.422;2022-08-24T07:01:57;101879.13;;;23.05;70.84
71964;BME280;59834;52.124;5.422;2022-08-24T07:04:24;101883.53;;;22.97;70.95
71964;BME280;59834;52.124;5.422;2022-08-24T07:06:54;101885.94;;;22.90;72.02
71964;BME280;59834;52.124;5.422;2022-08-24T07:09:21;101885.94;;;22.90;72.12
71964;BME280;59834;52.124;5.422;2022-08-24T07:11:51;101897.91;;;22.86;72.20
71964;BME280;59834;52.124;5.422;2022-08-24T07:14:17;101893.59;;;22.85;72.89
71964;BME280;59834;52.124;5.422;2022-08-24T07:16:44;101890.31;;;22.91;73.43
71964;BME280;59834;52.124;5.422;2022-08-24T07:19:12;101897.09;;;22.86;73.41
71964;BME280;59834;52.124;5.422;2022-08-24T07:21:39;101899.00;;;22.93;73.87
71964;BME280;59834;52.124;5.422;2022-08-24T07:24:06;101899.97;;;22.92;72.47
71964;BME280;59834;52.124;5.422;2022-08-24T07:26:33;101904.28;;;23.03;72.84
71964;BME280;59834;52.124;5.422;2022-08-24T07:29:05;101903.53;;;23.11;73.70
71964;BME280;59834;52.124;5.422;2022-08-24T07:31:34;101903.28;;;23.22;73.00
71964;BME280;59834;52.124;5.422;2022-08-24T07:34:02;101893.81;;;23.27;71.80
71964;BME280;59834;52.124;5.422;2022-08-24T07:36:29;101901.06;;;23.35;71.68
71964;BME280;59834;52.124;5.422;2022-08-24T07:38:57;101905.19;;;23.29;72.74
71964;BME280;59834;52.124;5.422;2022-08-24T07:41:24;101917.13;;;23.43;71.59
71964;BME280;59834;52.124;5.422;2022-08-24T07:44:11;101898.19;;;23.55;70.99
71964;BME280;59834;52.124;5.422;2022-08-24T07:46:39;101901.22;;;23.60;70.34
71964;BME280;59834;52.124;5.422;2022-08-24T07:49:07;101910.69;;;23.72;69.87
71964;BME280;59834;52.124;5.422;2022-08-24T07:51:53;101906.44;;;23.87;69.75
71964;BME280;59834;52.124;5.422;2022-08-24T07:54:20;101913.34;;;23.98;69.55
71964;BME280;59834;52.124;5.422;2022-08-24T07:56:47;101907.50;;;23.94;69.55
71964;BME280;59834;52.124;5.422;2022-08-24T07:59:16;101899.50;;;24.03;70.04
71964;BME280;59834;52.124;5.422;2022-08-24T08:01:43;101904.66;;;24.04;68.39
71964;BME280;59834;52.124;5.422;2022-08-24T08:04:10;101907.03;;;24.07;68.59
71964;BME280;59834;52.124;5.422;2022-08-24T08:06:36;101905.25;;;24.16;67.64
71964;BME280;59834;52.124;5.422;2022-08-24T08:09:04;101913.59;;;24.21;67.96
71964;BME280;59834;52.124;5.422;2022-08-24T08:11:31;101909.34;;;24.36;67.17
71964;BME280;59834;52.124;5.422;2022-08-24T08:13:58;101914.78;;;24.53;67.81
71964;BME280;59834;52.124;5.422;2022-08-24T08:16:24;101919.16;;;24.62;66.49
71964;BME280;59834;52.124;5.422;2022-08-24T08:18:52;101915.66;;;24.69;65.85
71964;BME280;59834;52.124;5.422;2022-08-24T08:21:43;101922.66;;;24.70;65.18
71964;BME280;59834;52.124;5.422;2022-08-24T08:24:28;101920.50;;;24.74;64.71
71964;BME280;59834;52.124;5.422;2022-08-24T08:26:56;101934.22;;;24.71;65.84
71964;BME280;59834;52.124;5.422;2022-08-24T08:29:23;101928.91;;;24.79;65.87
71964;BME280;59834;52.124;5.422;2022-08-24T08:31:50;101927.91;;;24.88;65.38
71964;BME280;59834;52.124;5.422;2022-08-24T08:34:18;101933.59;;;24.93;64.94
71964;BME280;59834;52.124;5.422;2022-08-24T08:36:44;101925.22;;;25.05;63.74
71964;BME280;59834;52.124;5.422;2022-08-24T08:39:13;101928.25;;;25.10;63.20
71964;BME280;59834;52.124;5.422;2022-08-24T08:44:34;101934.81;;;25.24;63.19
71964;BME280;59834;52.124;5.422;2022-08-24T08:47:50;101936.00;;;25.29;63.41
71964;BME280;59834;52.124;5.422;2022-08-24T08:56:21;101929.47;;;25.56;61.82
71964;BME280;59834;52.124;5.422;2022-08-24T08:59:19;101935.44;;;25.75;61.95
71964;BME280;59834;52.124;5.422;2022-08-24T09:07:34;101926.59;;;25.82;60.78
71964;BME280;59834;52.124;5.422;2022-08-24T09:10:19;101925.19;;;25.95;60.13
71964;BME280;59834;52.124;5.422;2022-08-24T09:15:58;101928.25;;;25.83;59.15
71964;BME280;59834;52.124;5.422;2022-08-24T09:18:52;101932.94;;;25.90;60.21
71964;BME280;59834;52.124;5.422;2022-08-24T09:35:52;101923.69;;;26.48;57.59
71964;BME280;59834;52.124;5.422;2022-08-24T09:38:44;101921.63;;;26.58;57.62
71964;BME280;59834;52.124;5.422;2022-08-24T09:49:55;101916.16;;;26.97;56.05
71964;BME280;59834;52.124;5.422;2022-08-24T10:01:35;101921.66;;;27.04;55.38
71964;BME280;59834;52.124;5.422;2022-08-24T10:04:17;101919.75;;;27.13;55.53
71964;BME280;59834;52.124;5.422;2022-08-24T10:07:43;101923.88;;;27.23;54.86
71964;BME280;59834;52.124;5.422;2022-08-24T10:10:34;101911.56;;;27.29;55.17
71964;BME280;59834;52.124;5.422;2022-08-24T10:16:26;101913.09;;;27.46;54.26
71964;BME280;59834;52.124;5.422;2022-08-24T10:21:57;101904.84;;;27.63;52.52
71964;BME280;59834;52.124;5.422;2022-08-24T10:24:45;101902.16;;;27.63;52.78
71964;BME280;59834;52.124;5.422;2022-08-24T10:30:39;101902.84;;;27.80;52.18
71964;BME280;59834;52.124;5.422;2022-08-24T10:33:18;101899.28;;;27.64;52.95
71964;BME280;59834;52.124;5.422;2022-08-24T10:38:36;101891.91;;;27.81;52.58
71964;BME280;59834;52.124;5.422;2022-08-24T10:44:53;101887.97;;;28.13;51.19
71964;BME280;59834;52.124;5.422;2022-08-24T10:47:27;101887.97;;;28.28;50.04
71964;BME280;59834;52.124;5.422;2022-08-24T10:50:25;101883.16;;;28.24;50.92
71964;BME280;59834;52.124;5.422;2022-08-24T10:53:19;101882.28;;;28.23;50.55
71964;BME280;59834;52.124;5.422;2022-08-24T10:55:56;101886.38;;;28.19;48.46
71964;BME280;59834;52.124;5.422;2022-08-24T10:58:41;101890.56;;;28.22;49.43
71964;BME280;59834;52.124;5.422;2022-08-24T11:01:30;101885.06;;;28.45;49.23
71964;BME280;59834;52.124;5.422;2022-08-24T11:04:08;101883.75;;;28.55;48.34
71964;BME280;59834;52.124;5.422;2022-08-24T11:07:06;101880.16;;;28.70;49.10
71964;BME280;59834;52.124;5.422;2022-08-24T11:12:30;101877.53;;;28.76;46.50
71964;BME280;59834;52.124;5.422;2022-08-24T11:15:00;101874.88;;;28.83;46.91
71964;BME280;59834;52.124;5.422;2022-08-24T11:17:31;101878.16;;;28.78;47.44
71964;BME280;59834;52.124;5.422;2022-08-24T11:19:59;101877.03;;;28.87;46.67
71964;BME280;59834;52.124;5.422;2022-08-24T11:22:28;101862.28;;;29.05;47.18
71964;BME280;59834;52.124;5.422;2022-08-24T11:25:03;101867.97;;;28.95;46.50
71964;BME280;59834;52.124;5.422;2022-08-24T11:27:34;101876.13;;;29.02;46.01
71964;BME280;59834;52.124;5.422;2022-08-24T11:32:52;101873.09;;;29.11;45.92
71964;BME280;59834;52.124;5.422;2022-08-24T11:38:23;101873.34;;;29.17;46.05
71964;BME280;59834;52.124;5.422;2022-08-24T11:41:08;101869.63;;;29.18;45.50
71964;BME280;59834;52.124;5.422;2022-08-24T11:44:04;101883.16;;;29.24;44.70
71964;BME280;59834;52.124;5.422;2022-08-24T11:47:22;101874.38;;;28.94;45.17
71964;BME280;59834;52.124;5.422;2022-08-24T12:01:50;101873.19;;;29.53;44.83
71964;BME280;59834;52.124;5.422;2022-08-24T12:05:03;101865.81;;;29.62;43.73
71964;BME280;59834;52.124;5.422;2022-08-24T12:07:49;101864.06;;;29.54;44.05
71964;BME280;59834;52.124;5.422;2022-08-24T12:10:57;101862.91;;;29.63;43.69
71964;BME280;59834;52.124;5.422;2022-08-24T12:13:41;101867.47;;;29.63;43.67
71964;BME280;59834;52.124;5.422;2022-08-24T12:16:28;101870.00;;;29.71;44.13
71964;BME280;59834;52.124;5.422;2022-08-24T12:19:05;101871.31;;;29.81;42.89
71964;BME280;59834;52.124;5.422;2022-08-24T12:21:37;101865.13;;;29.94;43.73
71964;BME280;59834;52.124;5.422;2022-08-24T12:24:07;101865.22;;;29.66;42.45
71964;BME280;59834;52.124;5.422;2022-08-24T12:26:39;101862.72;;;29.36;44.27
71964;BME280;59834;52.124;5.422;2022-08-24T12:29:11;101862.22;;;29.26;44.60
71964;BME280;59834;52.124;5.422;2022-08-24T12:31:57;101866.84;;;29.04;45.02
71964;BME280;59834;52.124;5.422;2022-08-24T12:34:47;101862.19;;;28.77;45.51
71964;BME280;59834;52.124;5.422;2022-08-24T12:37:49;101860.78;;;28.59;45.64
71964;BME280;59834;52.124;5.422;2022-08-24T12:40:29;101866.84;;;28.47;46.76
71964;BME280;59834;52.124;5.422;2022-08-24T12:43:03;101858.78;;;28.32;45.80
71964;BME280;59834;52.124;5.422;2022-08-24T12:45:32;101862.44;;;28.24;46.04
71964;BME280;59834;52.124;5.422;2022-08-24T12:53:45;101858.69;;;28.40;46.80
71964;BME280;59834;52.124;5.422;2022-08-24T12:57:06;101872.44;;;28.66;46.66
71964;BME280;59834;52.124;5.422;2022-08-24T12:59:46;101855.91;;;29.12;45.36
71964;BME280;59834;52.124;5.422;2022-08-24T13:09:46;101851.47;;;30.02;41.89
71964;BME280;59834;52.124;5.422;2022-08-24T13:15:19;101853.06;;;30.38;42.06
71964;BME280;59834;52.124;5.422;2022-08-24T13:33:46;101841.56;;;30.16;41.96
71964;BME280;59834;52.124;5.422;2022-08-24T13:44:21;101848.72;;;30.44;41.63
71964;BME280;59834;52.124;5.422;2022-08-24T13:49:51;101841.28;;;30.66;41.16
71964;BME280;59834;52.124;5.422;2022-08-24T13:52:36;101838.59;;;30.72;39.82
71964;BME280;59834;52.124;5.422;2022-08-24T13:55:20;101837.59;;;30.80;40.34
71964;BME280;59834;52.124;5.422;2022-08-24T13:58:05;101836.50;;;30.68;38.91
71964;BME280;59834;52.124;5.422;2022-08-24T14:06:35;101839.19;;;30.74;40.05
71964;BME280;59834;52.124;5.422;2022-08-24T14:17:21;101836.94;;;31.05;39.06
71964;BME280;59834;52.124;5.422;2022-08-24T14:39:54;101824.69;;;30.89;38.89
71964;BME280;59834;52.124;5.422;2022-08-24T14:42:35;101813.63;;;30.70;39.64
71964;BME280;59834;52.124;5.422;2022-08-24T14:45:09;101816.38;;;31.04;39.91
71964;BME280;59834;52.124;5.422;2022-08-24T14:48:02;101810.13;;;30.96;39.09
71964;BME280;59834;52.124;5.422;2022-08-24T14:50:53;101812.22;;;30.81;39.79
71964;BME280;59834;52.124;5.422;2022-08-24T14:53:50;101808.63;;;30.61;39.94
71964;BME280;59834;52.124;5.422;2022-08-24T15:01:46;101801.16;;;30.69;40.12
71964;BME280;59834;52.124;5.422;2022-08-24T15:04:27;101793.06;;;30.69;39.71
71964;BME280;59834;52.124;5.422;2022-08-24T15:09:49;101803.03;;;30.69;40.00
71964;BME280;59834;52.124;5.422;2022-08-24T15:12:28;101805.09;;;30.53;39.72
71964;BME280;59834;52.124;5.422;2022-08-24T15:15:26;101808.00;;;30.45;39.54
71964;BME280;59834;52.124;5.422;2022-08-24T15:18:08;101804.47;;;30.45;40.93
71964;BME280;59834;52.124;5.422;2022-08-24T15:20:43;101799.47;;;30.35;40.46
71964;BME280;59834;52.124;5.422;2022-08-24T15:23:18;101795.09;;;30.27;40.08
71964;BME280;59834;52.124;5.422;2022-08-24T15:25:57;101798.00;;;30.26;41.10
71964;BME280;59834;52.124;5.422;2022-08-24T15:28:31;101795.09;;;30.34;40.92
71964;BME280;59834;52.124;5.422;2022-08-24T15:31:05;101790.53;;;30.35;41.46
71964;BME280;59834;52.124;5.422;2022-08-24T15:33:33;101783.66;;;30.19;41.24
71964;BME280;59834;52.124;5.422;2022-08-24T15:36:15;101789.66;;;30.21;41.75
71964;BME280;59834;52.124;5.422;2022-08-24T15:38:49;101785.09;;;30.28;41.03
71964;BME280;59834;52.124;5.422;2022-08-24T15:41:25;101783.81;;;30.17;41.59
71964;BME280;59834;52.124;5.422;2022-08-24T15:44:14;101777.56;;;30.03;41.89
71964;BME280;59834;52.124;5.422;2022-08-24T15:46:52;101778.19;;;30.05;41.34
71964;BME280;59834;52.124;5.422;2022-08-24T15:49:25;101781.31;;;30.02;41.51
71964;BME280;59834;52.124;5.422;2022-08-24T15:51:59;101777.16;;;30.06;41.83
71964;BME280;59834;52.124;5.422;2022-08-24T15:54:34;101775.09;;;30.15;41.65
71964;BME280;59834;52.124;5.422;2022-08-24T15:59:48;101778.38;;;29.97;41.97
71964;BME280;59834;52.124;5.422;2022-08-24T16:02:23;101781.25;;;29.89;41.25
71964;BME280;59834;52.124;5.422;2022-08-24T16:10:29;101788.88;;;29.72;41.37
71964;BME280;59834;52.124;5.422;2022-08-24T16:13:20;101783.19;;;29.60;41.65
71964;BME280;59834;52.124;5.422;2022-08-24T16:15:57;101788.13;;;29.57;41.68
71964;BME280;59834;52.124;5.422;2022-08-24T16:18:39;101787.31;;;29.56;42.08
71964;BME280;59834;52.124;5.422;2022-08-24T16:21:28;101784.81;;;29.55;42.83
71964;BME280;59834;52.124;5.422;2022-08-24T16:24:24;101790.63;;;29.52;42.89
71964;BME280;59834;52.124;5.422;2022-08-24T16:27:07;101783.97;;;29.48;42.51